sensor_id;sensor_type;location;lat;lon;timestamp;P1;durP1;ratioP1;P2;durP2;ratioP2
18505;SDS011;9382;53.242;10.438;2023-05-21T00:00:10;5.83;;;3.27;;
18505;SDS011;9382;53.242;10.438;2023-05-21T00:02:37;5.07;;;3.50;;
18505;SDS011;9382;53.242;10.438;2023-05-21T00:05:04;5.63;;;3.50;;
18505;SDS011;9382;53.242;10.438;2023-05-21T00:07:35;4.83;;;3.23;;
18505;SDS011;9382;53.242;10.438;2023-05-21T00:10:02;4.07;;;3.30;;
18505;SDS011;9382;53.242;10.438;2023-05-21T00:12:28;4.87;;;3.10;;
18505;SDS011;9382;53.242;10.438;2023-05-21T00:14:56;8.80;;;3.33;;
18505;SDS011;9382;53.242;10.438;2023-05-21T00:17:23;4.77;;;3.00;;
18505;SDS011;9382;53.242;10.438;2023-05-21T00:19:51;6.23;;;3.30;;
18505;SDS011;9382;53.242;10.438;2023-05-21T00:22:17;4.37;;;3.13;;
18505;SDS011;9382;53.242;10.438;2023-05-21T00:24:46;3.70;;;2.90;;
18505;SDS011;9382;53.242;10.438;2023-05-21T00:27:12;5.00;;;3.20;;
18505;SDS011;9382;53.242;10.438;2023-05-21T00:29:40;5.50;;;3.30;;
18505;SDS011;9382;53.242;10.438;2023-05-21T00:32:07;6.00;;;3.07;;
18505;SDS011;9382;53.242;10.438;2023-05-21T00:34:34;4.83;;;3.40;;
18505;SDS011;9382;53.242;10.438;2023-05-21T00:37:01;6.23;;;3.30;;
18505;SDS011;9382;53.242;10.438;2023-05-21T00:39:27;5.60;;;3.13;;
18505;SDS011;9382;53.242;10.438;2023-05-21T00:41:55;5.10;;;3.40;;
18505;SDS011;9382;53.242;10.438;2023-05-21T00:44:22;5.37;;;3.30;;
18505;SDS011;9382;53.242;10.438;2023-05-21T00:46:49;5.80;;;2.90;;
18505;SDS011;9382;53.242;10.438;2023-05-21T00:49:17;8.37;;;3.53;;
18505;SDS011;9382;53.242;10.438;2023-05-21T00:51:46;7.23;;;3.10;;
18505;SDS011;9382;53.242;10.438;2023-05-21T00:54:13;5.87;;;3.50;;
18505;SDS011;9382;53.242;10.438;2023-05-21T00:56:39;8.43;;;3.53;;
18505;SDS011;9382;53.242;10.438;2023-05-21T00:59:08;6.80;;;3.43;;
18505;SDS011;9382;53.242;10.438;2023-05-21T01:01:35;3.67;;;3.00;;
18505;SDS011;9382;53.242;10.438;2023-05-21T01:04:02;6.47;;;3.17;;
18505;SDS011;9382;53.242;10.438;2023-05-21T01:06:29;8.30;;;3.40;;
18505;SDS011;9382;53.242;10.438;2023-05-21T01:08:58;6.97;;;3.33;;
18505;SDS011;9382;53.242;10.438;2023-05-21T01:11:28;4.20;;;3.40;;
18505;SDS011;9382;53.242;10.438;2023-05-21T01:14:03;8.00;;;3.53;;
18505;SDS011;9382;53.242;10.438;2023-05-21T01:16:33;6.90;;;3.80;;
18505;SDS011;9382;53.242;10.438;2023-05-21T01:19:02;6.17;;;3.00;;
18505;SDS011;9382;53.242;10.438;2023-05-21T01:21:31;6.30;;;3.60;;
18505;SDS011;9382;53.242;10.438;2023-05-21T01:24:02;3.83;;;3.17;;
18505;SDS011;9382;53.242;10.438;2023-05-21T01:26:31;6.10;;;3.43;;
18505;SDS011;9382;53.242;10.438;2023-05-21T01:29:02;5.10;;;3.30;;
18505;SDS011;9382;53.242;10.438;2023-05-21T01:31:29;4.53;;;3.27;;
18505;SDS011;9382;53.242;10.438;2023-05-21T01:34:02;9.37;;;3.50;;
18505;SDS011;9382;53.242;10.438;2023-05-21T01:36:33;4.77;;;3.20;;
18505;SDS011;9382;53.242;10.438;2023-05-21T01:39:08;5.80;;;3.60;;
18505;SDS011;9382;53.242;10.438;2023-05-21T01:41:39;7.50;;;3.40;;
18505;SDS011;9382;53.242;10.438;2023-05-21T01:44:08;6.63;;;3.70;;
18505;SDS011;9382;53.242;10.438;2023-05-21T01:46:36;5.50;;;3.30;;
18505;SDS011;9382;53.242;10.438;2023-05-21T01:49:04;8.90;;;3.77;;
18505;SDS011;9382;53.242;10.438;2023-05-21T01:51:32;5.33;;;3.50;;
18505;SDS011;9382;53.242;10.438;2023-05-21T01:54:00;4.90;;;3.60;;
18505;SDS011;9382;53.242;10.438;2023-05-21T01:56:28;4.57;;;3.20;;
18505;SDS011;9382;53.242;10.438;2023-05-21T01:58:58;5.07;;;3.37;;
18505;SDS011;9382;53.242;10.438;2023-05-21T02:01:25;4.53;;;3.23;;
18505;SDS011;9382;53.242;10.438;2023-05-21T02:03:54;5.70;;;3.33;;
18505;SDS011;9382;53.242;10.438;2023-05-21T02:06:21;6.93;;;3.33;;
18505;SDS011;9382;53.242;10.438;2023-05-21T02:08:47;7.13;;;3.73;;
18505;SDS011;9382;53.242;10.438;2023-05-21T02:11:14;4.73;;;3.40;;
18505;SDS011;9382;53.242;10.438;2023-05-21T02:13:42;5.60;;;3.30;;
18505;SDS011;9382;53.242;10.438;2023-05-21T02:16:10;7.30;;;3.70;;
18505;SDS011;9382;53.242;10.438;2023-05-21T02:18:38;6.30;;;3.67;;
18505;SDS011;9382;53.242;10.438;2023-05-21T02:21:07;6.57;;;3.80;;
18505;SDS011;9382;53.242;10.438;2023-05-21T02:23:34;5.67;;;3.50;;
18505;SDS011;9382;53.242;10.438;2023-05-21T02:26:01;7.67;;;3.30;;
18505;SDS011;9382;53.242;10.438;2023-05-21T02:28:27;6.47;;;3.37;;
18505;SDS011;9382;53.242;10.438;2023-05-21T02:30:56;7.80;;;3.47;;
18505;SDS011;9382;53.242;10.438;2023-05-21T02:33:22;4.67;;;3.53;;
18505;SDS011;9382;53.242;10.438;2023-05-21T02:35:50;5.50;;;3.27;;
18505;SDS011;9382;53.242;10.438;2023-05-21T02:38:16;7.53;;;3.40;;
18505;SDS011;9382;53.242;10.438;2023-05-21T02:40:47;5.97;;;3.53;;
18505;SDS011;9382;53.242;10.438;2023-05-21T02:43:13;4.73;;;3.10;;
18505;SDS011;9382;53.242;10.438;2023-05-21T02:45:40;5.27;;;3.80;;
18505;SDS011;9382;53.242;10.438;2023-05-21T02:48:08;6.43;;;3.87;;
18505;SDS011;9382;53.242;10.438;2023-05-21T02:50:35;6.10;;;3.67;;
18505;SDS011;9382;53.242;10.438;2023-05-21T02:53:01;8.33;;;4.27;;
18505;SDS011;9382;53.242;10.438;2023-05-21T02:55:28;6.43;;;3.50;;
18505;SDS011;9382;53.242;10.438;2023-05-21T02:57:55;7.03;;;4.07;;
18505;SDS011;9382;53.242;10.438;2023-05-21T03:00:21;10.07;;;3.93;;
18505;SDS011;9382;53.242;10.438;2023-05-21T03:02:48;6.17;;;3.80;;
18505;SDS011;9382;53.242;10.438;2023-05-21T03:05:16;7.17;;;3.80;;
18505;SDS011;9382;53.242;10.438;2023-05-21T03:07:44;8.47;;;3.90;;
18505;SDS011;9382;53.242;10.438;2023-05-21T03:10:10;8.57;;;4.23;;
18505;SDS011;9382;53.242;10.438;2023-05-21T03:12:37;6.80;;;4.00;;
18505;SDS011;9382;53.242;10.438;2023-05-21T03:15:04;5.37;;;3.83;;
18505;SDS011;9382;53.242;10.438;2023-05-21T03:17:31;6.27;;;3.80;;
18505;SDS011;9382;53.242;10.438;2023-05-21T03:19:58;6.23;;;3.93;;
18505;SDS011;9382;53.242;10.438;2023-05-21T03:22:26;7.77;;;4.47;;
18505;SDS011;9382;53.242;10.438;2023-05-21T03:24:52;5.93;;;3.70;;
18505;SDS011;9382;53.242;10.438;2023-05-21T03:27:19;5.53;;;4.23;;
18505;SDS011;9382;53.242;10.438;2023-05-21T03:29:46;5.07;;;3.80;;
18505;SDS011;9382;53.242;10.438;2023-05-21T03:32:14;6.50;;;4.00;;
18505;SDS011;9382;53.242;10.438;2023-05-21T03:34:40;5.80;;;3.70;;
18505;SDS011;9382;53.242;10.438;2023-05-21T03:37:07;8.17;;;4.10;;
18505;SDS011;9382;53.242;10.438;2023-05-21T03:39:35;7.57;;;3.90;;
18505;SDS011;9382;53.242;10.438;2023-05-21T03:42:02;8.30;;;4.27;;
18505;SDS011;9382;53.242;10.438;2023-05-21T03:44:28;7.00;;;4.10;;
18505;SDS011;9382;53.242;10.438;2023-05-21T03:46:56;5.63;;;4.47;;
18505;SDS011;9382;53.242;10.438;2023-05-21T03:49:23;5.77;;;4.03;;
18505;SDS011;9382;53.242;10.438;2023-05-21T03:51:49;8.30;;;4.70;;
18505;SDS011;9382;53.242;10.438;2023-05-21T03:54:16;9.43;;;4.77;;
18505;SDS011;9382;53.242;10.438;2023-05-21T03:56:44;4.80;;;4.00;;
18505;SDS011;9382;53.242;10.438;2023-05-21T03:59:11;6.37;;;4.33;;
18505;SDS011;9382;53.242;10.438;2023-05-21T04:01:38;8.90;;;4.30;;
18505;SDS011;9382;53.242;10.438;2023-05-21T04:04:04;10.10;;;4.27;;
18505;SDS011;9382;53.242;10.438;2023-05-21T04:06:31;7.83;;;4.23;;
18505;SDS011;9382;53.242;10.438;2023-05-21T04:08:58;8.80;;;4.37;;
18505;SDS011;9382;53.242;10.438;2023-05-21T04:11:25;6.90;;;4.10;;
18505;SDS011;9382;53.242;10.438;2023-05-21T04:13:53;11.07;;;4.63;;
18505;SDS011;9382;53.242;10.438;2023-05-21T04:16:19;7.63;;;4.17;;
18505;SDS011;9382;53.242;10.438;2023-05-21T04:18:46;7.50;;;4.10;;
18505;SDS011;9382;53.242;10.438;2023-05-21T04:21:13;6.43;;;4.40;;
18505;SDS011;9382;53.242;10.438;2023-05-21T04:23:40;7.57;;;4.27;;
18505;SDS011;9382;53.242;10.438;2023-05-21T04:26:06;6.17;;;4.40;;
18505;SDS011;9382;53.242;10.438;2023-05-21T04:28:33;7.43;;;4.50;;
18505;SDS011;9382;53.242;10.438;2023-05-21T04:31:01;9.67;;;4.50;;
18505;SDS011;9382;53.242;10.438;2023-05-21T04:33:29;9.00;;;4.30;;
18505;SDS011;9382;53.242;10.438;2023-05-21T04:35:56;6.83;;;3.80;;
18505;SDS011;9382;53.242;10.438;2023-05-21T04:38:22;8.50;;;4.70;;
18505;SDS011;9382;53.242;10.438;2023-05-21T04:40:49;7.03;;;4.53;;
18505;SDS011;9382;53.242;10.438;2023-05-21T04:43:16;9.43;;;5.17;;
18505;SDS011;9382;53.242;10.438;2023-05-21T04:45:49;9.43;;;4.60;;
18505;SDS011;9382;53.242;10.438;2023-05-21T04:48:17;8.43;;;4.43;;
18505;SDS011;9382;53.242;10.438;2023-05-21T04:50:44;10.27;;;4.80;;
18505;SDS011;9382;53.242;10.438;2023-05-21T04:53:11;7.43;;;4.30;;
18505;SDS011;9382;53.242;10.438;2023-05-21T04:55:37;10.67;;;4.97;;
18505;SDS011;9382;53.242;10.438;2023-05-21T04:58:05;8.03;;;4.37;;
18505;SDS011;9382;53.242;10.438;2023-05-21T05:00:32;7.33;;;4.57;;
18505;SDS011;9382;53.242;10.438;2023-05-21T05:03:01;8.17;;;4.77;;
18505;SDS011;9382;53.242;10.438;2023-05-21T05:05:29;6.80;;;4.90;;
18505;SDS011;9382;53.242;10.438;2023-05-21T05:07:56;8.30;;;5.03;;
18505;SDS011;9382;53.242;10.438;2023-05-21T05:10:23;8.87;;;4.37;;
18505;SDS011;9382;53.242;10.438;2023-05-21T05:12:49;9.17;;;4.70;;
18505;SDS011;9382;53.242;10.438;2023-05-21T05:15:16;10.40;;;5.23;;
18505;SDS011;9382;53.242;10.438;2023-05-21T05:17:43;7.73;;;4.77;;
18505;SDS011;9382;53.242;10.438;2023-05-21T05:20:12;8.27;;;4.83;;
18505;SDS011;9382;53.242;10.438;2023-05-21T05:22:40;7.10;;;4.93;;
18505;SDS011;9382;53.242;10.438;2023-05-21T05:25:06;7.37;;;4.93;;
18505;SDS011;9382;53.242;10.438;2023-05-21T05:27:33;7.37;;;4.80;;
18505;SDS011;9382;53.242;10.438;2023-05-21T05:30:00;8.57;;;5.23;;
18505;SDS011;9382;53.242;10.438;2023-05-21T05:32:27;8.97;;;5.27;;
18505;SDS011;9382;53.242;10.438;2023-05-21T05:34:53;7.80;;;5.07;;
18505;SDS011;9382;53.242;10.438;2023-05-21T05:37:20;9.30;;;5.20;;
18505;SDS011;9382;53.242;10.438;2023-05-21T05:39:48;8.13;;;5.13;;
18505;SDS011;9382;53.242;10.438;2023-05-21T05:42:15;8.27;;;5.20;;
18505;SDS011;9382;53.242;10.438;2023-05-21T05:44:41;7.57;;;5.00;;
18505;SDS011;9382;53.242;10.438;2023-05-21T05:47:08;10.07;;;5.40;;
18505;SDS011;9382;53.242;10.438;2023-05-21T05:49:34;8.47;;;5.27;;
18505;SDS011;9382;53.242;10.438;2023-05-21T05:52:01;10.57;;;5.53;;
18505;SDS011;9382;53.242;10.438;2023-05-21T05:54:28;8.77;;;5.50;;
18505;SDS011;9382;53.242;10.438;2023-05-21T05:56:56;11.27;;;5.00;;
18505;SDS011;9382;53.242;10.438;2023-05-21T05:59:22;8.00;;;5.10;;
18505;SDS011;9382;53.242;10.438;2023-05-21T06:01:49;11.60;;;5.43;;
18505;SDS011;9382;53.242;10.438;2023-05-21T06:04:15;9.10;;;5.40;;
18505;SDS011;9382;53.242;10.438;2023-05-21T06:06:42;10.13;;;5.47;;
18505;SDS011;9382;53.242;10.438;2023-05-21T06:09:09;7.87;;;5.30;;
18505;SDS011;9382;53.242;10.438;2023-05-21T06:11:35;9.87;;;5.83;;
18505;SDS011;9382;53.242;10.438;2023-05-21T06:14:03;9.90;;;5.80;;
18505;SDS011;9382;53.242;10.438;2023-05-21T06:16:30;9.50;;;6.37;;
18505;SDS011;9382;53.242;10.438;2023-05-21T06:18:57;12.43;;;6.57;;
18505;SDS011;9382;53.242;10.438;2023-05-21T06:21:24;11.43;;;6.43;;
18505;SDS011;9382;53.242;10.438;2023-05-21T06:23:51;10.53;;;6.53;;
18505;SDS011;9382;53.242;10.438;2023-05-21T06:26:17;10.63;;;6.20;;
18505;SDS011;9382;53.242;10.438;2023-05-21T06:28:44;8.97;;;6.73;;
18505;SDS011;9382;53.242;10.438;2023-05-21T06:31:12;9.03;;;6.50;;
18505;SDS011;9382;53.242;10.438;2023-05-21T06:33:39;7.20;;;6.00;;
18505;SDS011;9382;53.242;10.438;2023-05-21T06:36:05;11.97;;;6.93;;
18505;SDS011;9382;53.242;10.438;2023-05-21T06:38:32;10.73;;;6.77;;
18505;SDS011;9382;53.242;10.438;2023-05-21T06:40:59;14.13;;;6.47;;
18505;SDS011;9382;53.242;10.438;2023-05-21T06:43:25;12.57;;;6.60;;
18505;SDS011;9382;53.242;10.438;2023-05-21T06:45:52;12.60;;;7.40;;
18505;SDS011;9382;53.242;10.438;2023-05-21T06:48:20;12.70;;;7.40;;
18505;SDS011;9382;53.242;10.438;2023-05-21T06:50:47;11.67;;;6.33;;
18505;SDS011;9382;53.242;10.438;2023-05-21T06:53:13;12.30;;;7.13;;
18505;SDS011;9382;53.242;10.438;2023-05-21T06:55:40;10.07;;;6.93;;
18505;SDS011;9382;53.242;10.438;2023-05-21T06:58:08;11.93;;;7.33;;
18505;SDS011;9382;53.242;10.438;2023-05-21T07:00:35;11.20;;;7.97;;
18505;SDS011;9382;53.242;10.438;2023-05-21T07:03:02;13.27;;;7.73;;
18505;SDS011;9382;53.242;10.438;2023-05-21T07:05:30;10.83;;;7.27;;
18505;SDS011;9382;53.242;10.438;2023-05-21T07:07:57;12.03;;;7.60;;
18505;SDS011;9382;53.242;10.438;2023-05-21T07:10:23;10.10;;;7.30;;
18505;SDS011;9382;53.242;10.438;2023-05-21T07:12:50;11.33;;;7.50;;
18505;SDS011;9382;53.242;10.438;2023-05-21T07:15:17;13.93;;;8.00;;
18505;SDS011;9382;53.242;10.438;2023-05-21T07:17:43;10.00;;;7.70;;
18505;SDS011;9382;53.242;10.438;2023-05-21T07:20:11;14.30;;;8.40;;
18505;SDS011;9382;53.242;10.438;2023-05-21T07:22:40;11.23;;;7.53;;
18505;SDS011;9382;53.242;10.438;2023-05-21T07:25:07;13.33;;;8.63;;
18505;SDS011;9382;53.242;10.438;2023-05-21T07:27:34;12.63;;;8.13;;
18505;SDS011;9382;53.242;10.438;2023-05-21T07:30:01;13.53;;;7.17;;
18505;SDS011;9382;53.242;10.438;2023-05-21T07:32:27;13.50;;;7.53;;
18505;SDS011;9382;53.242;10.438;2023-05-21T07:34:54;14.63;;;8.53;;
18505;SDS011;9382;53.242;10.438;2023-05-21T07:37:21;12.17;;;8.10;;
18505;SDS011;9382;53.242;10.438;2023-05-21T07:39:50;13.83;;;8.23;;
18505;SDS011;9382;53.242;10.438;2023-05-21T07:42:17;11.30;;;7.70;;
18505;SDS011;9382;53.242;10.438;2023-05-21T07:44:43;15.40;;;8.80;;
18505;SDS011;9382;53.242;10.438;2023-05-21T07:47:10;14.17;;;8.90;;
18505;SDS011;9382;53.242;10.438;2023-05-21T07:49:37;14.30;;;9.10;;
18505;SDS011;9382;53.242;10.438;2023-05-21T07:52:04;16.27;;;8.97;;
18505;SDS011;9382;53.242;10.438;2023-05-21T07:54:31;16.47;;;9.73;;
18505;SDS011;9382;53.242;10.438;2023-05-21T07:56:59;17.87;;;9.63;;
18505;SDS011;9382;53.242;10.438;2023-05-21T07:59:26;16.43;;;9.20;;
18505;SDS011;9382;53.242;10.438;2023-05-21T08:01:53;13.10;;;8.63;;
18505;SDS011;9382;53.242;10.438;2023-05-21T08:04:20;14.30;;;9.37;;
18505;SDS011;9382;53.242;10.438;2023-05-21T08:06:47;14.53;;;9.53;;
18505;SDS011;9382;53.242;10.438;2023-05-21T08:09:13;13.97;;;10.37;;
18505;SDS011;9382;53.242;10.438;2023-05-21T08:11:40;13.67;;;8.63;;
18505;SDS011;9382;53.242;10.438;2023-05-21T08:14:08;14.10;;;9.77;;
18505;SDS011;9382;53.242;10.438;2023-05-21T08:16:35;15.83;;;9.27;;
18505;SDS011;9382;53.242;10.438;2023-05-21T08:19:03;13.10;;;9.47;;
18505;SDS011;9382;53.242;10.438;2023-05-21T08:21:29;15.57;;;10.30;;
18505;SDS011;9382;53.242;10.438;2023-05-21T08:23:56;15.13;;;9.60;;
18505;SDS011;9382;53.242;10.438;2023-05-21T08:26:24;13.57;;;9.47;;
18505;SDS011;9382;53.242;10.438;2023-05-21T08:28:50;14.00;;;9.23;;
18505;SDS011;9382;53.242;10.438;2023-05-21T08:31:18;14.27;;;9.60;;
18505;SDS011;9382;53.242;10.438;2023-05-21T08:33:48;16.20;;;9.53;;
18505;SDS011;9382;53.242;10.438;2023-05-21T08:36:15;13.83;;;9.30;;
18505;SDS011;9382;53.242;10.438;2023-05-21T08:38:42;13.43;;;9.50;;
18505;SDS011;9382;53.242;10.438;2023-05-21T08:41:10;13.43;;;9.00;;
18505;SDS011;9382;53.242;10.438;2023-05-21T08:43:37;12.97;;;9.57;;
18505;SDS011;9382;53.242;10.438;2023-05-21T08:46:05;15.90;;;9.87;;
18505;SDS011;9382;53.242;10.438;2023-05-21T08:48:34;12.10;;;9.33;;
18505;SDS011;9382;53.242;10.438;2023-05-21T08:51:02;19.73;;;10.13;;
18505;SDS011;9382;53.242;10.438;2023-05-21T08:53:30;14.57;;;9.67;;
18505;SDS011;9382;53.242;10.438;2023-05-21T08:55:58;15.00;;;9.20;;
18505;SDS011;9382;53.242;10.438;2023-05-21T08:58:25;16.43;;;9.60;;
18505;SDS011;9382;53.242;10.438;2023-05-21T09:00:52;13.77;;;9.57;;
18505;SDS011;9382;53.242;10.438;2023-05-21T09:03:19;13.30;;;9.30;;
18505;SDS011;9382;53.242;10.438;2023-05-21T09:05:48;11.83;;;10.00;;
18505;SDS011;9382;53.242;10.438;2023-05-21T09:08:16;15.33;;;9.80;;
18505;SDS011;9382;53.242;10.438;2023-05-21T09:10:45;14.87;;;10.13;;
18505;SDS011;9382;53.242;10.438;2023-05-21T09:13:14;17.57;;;9.83;;
18505;SDS011;9382;53.242;10.438;2023-05-21T09:15:42;12.43;;;9.30;;
18505;SDS011;9382;53.242;10.438;2023-05-21T09:18:09;14.60;;;9.70;;
18505;SDS011;9382;53.242;10.438;2023-05-21T09:20:36;13.90;;;9.70;;
18505;SDS011;9382;53.242;10.438;2023-05-21T09:23:04;16.43;;;10.67;;
18505;SDS011;9382;53.242;10.438;2023-05-21T09:25:36;13.57;;;9.80;;
18505;SDS011;9382;53.242;10.438;2023-05-21T09:28:09;17.97;;;10.63;;
18505;SDS011;9382;53.242;10.438;2023-05-21T09:30:36;13.37;;;10.10;;
18505;SDS011;9382;53.242;10.438;2023-05-21T09:33:09;18.43;;;11.07;;
18505;SDS011;9382;53.242;10.438;2023-05-21T09:35:35;13.73;;;10.50;;
18505;SDS011;9382;53.242;10.438;2023-05-21T09:38:04;15.20;;;10.70;;
18505;SDS011;9382;53.242;10.438;2023-05-21T09:40:34;13.23;;;10.60;;
18505;SDS011;9382;53.242;10.438;2023-05-21T09:43:01;13.93;;;10.03;;
18505;SDS011;9382;53.242;10.438;2023-05-21T09:45:27;14.30;;;10.53;;
18505;SDS011;9382;53.242;10.438;2023-05-21T09:47:54;12.67;;;9.90;;
18505;SDS011;9382;53.242;10.438;2023-05-21T09:50:22;15.57;;;10.80;;
18505;SDS011;9382;53.242;10.438;2023-05-21T09:52:50;14.00;;;9.73;;
18505;SDS011;9382;53.242;10.438;2023-05-21T09:55:21;15.53;;;10.80;;
18505;SDS011;9382;53.242;10.438;2023-05-21T09:57:48;12.80;;;9.73;;
18505;SDS011;9382;53.242;10.438;2023-05-21T10:00:18;13.20;;;10.40;;
18505;SDS011;9382;53.242;10.438;2023-05-21T10:02:46;14.03;;;10.83;;
18505;SDS011;9382;53.242;10.438;2023-05-21T10:05:14;17.30;;;11.40;;
18505;SDS011;9382;53.242;10.438;2023-05-21T10:07:41;16.63;;;10.77;;
18505;SDS011;9382;53.242;10.438;2023-05-21T10:10:10;16.30;;;10.70;;
18505;SDS011;9382;53.242;10.438;2023-05-21T10:12:40;15.43;;;11.03;;
18505;SDS011;9382;53.242;10.438;2023-05-21T10:15:12;17.17;;;11.40;;
18505;SDS011;9382;53.242;10.438;2023-05-21T10:17:40;17.63;;;10.80;;
18505;SDS011;9382;53.242;10.438;2023-05-21T10:20:09;15.10;;;10.77;;
18505;SDS011;9382;53.242;10.438;2023-05-21T10:22:36;14.50;;;10.47;;
18505;SDS011;9382;53.242;10.438;2023-05-21T10:25:04;14.33;;;10.63;;
18505;SDS011;9382;53.242;10.438;2023-05-21T10:27:32;13.97;;;10.03;;
18505;SDS011;9382;53.242;10.438;2023-05-21T10:30:02;15.40;;;10.57;;
18505;SDS011;9382;53.242;10.438;2023-05-21T10:32:31;14.43;;;11.07;;
18505;SDS011;9382;53.242;10.438;2023-05-21T10:34:58;14.07;;;10.90;;
18505;SDS011;9382;53.242;10.438;2023-05-21T10:37:26;13.73;;;10.57;;
18505;SDS011;9382;53.242;10.438;2023-05-21T10:39:54;16.60;;;11.18;;
18505;SDS011;9382;53.242;10.438;2023-05-21T10:42:23;12.82;;;10.52;;
18505;SDS011;9382;53.242;10.438;2023-05-21T10:45:15;16.38;;;10.77;;
18505;SDS011;9382;53.242;10.438;2023-05-21T10:47:52;13.77;;;10.73;;
18505;SDS011;9382;53.242;10.438;2023-05-21T10:50:30;13.77;;;10.57;;
18505;SDS011;9382;53.242;10.438;2023-05-21T10:53:12;15.88;;;10.77;;
18505;SDS011;9382;53.242;10.438;2023-05-21T10:55:49;15.70;;;10.73;;
18505;SDS011;9382;53.242;10.438;2023-05-21T10:58:47;15.48;;;9.93;;
18505;SDS011;9382;53.242;10.438;2023-05-21T11:01:24;13.20;;;10.10;;
18505;SDS011;9382;53.242;10.438;2023-05-21T11:03:53;13.65;;;10.30;;
18505;SDS011;9382;53.242;10.438;2023-05-21T11:06:21;14.10;;;10.95;;
18505;SDS011;9382;53.242;10.438;2023-05-21T11:08:48;13.48;;;10.57;;
18505;SDS011;9382;53.242;10.438;2023-05-21T11:11:25;16.20;;;11.25;;
18505;SDS011;9382;53.242;10.438;2023-05-21T11:16:57;15.80;;;9.68;;
18505;SDS011;9382;53.242;10.438;2023-05-21T11:19:31;13.65;;;10.60;;
18505;SDS011;9382;53.242;10.438;2023-05-21T11:22:00;15.75;;;10.55;;
18505;SDS011;9382;53.242;10.438;2023-05-21T11:24:26;15.20;;;10.60;;
18505;SDS011;9382;53.242;10.438;2023-05-21T11:26:58;12.57;;;10.10;;
18505;SDS011;9382;53.242;10.438;2023-05-21T11:29:31;14.40;;;10.32;;
18505;SDS011;9382;53.242;10.438;2023-05-21T11:32:07;13.63;;;10.27;;
18505;SDS011;9382;53.242;10.438;2023-05-21T11:34:38;13.63;;;10.93;;
18505;SDS011;9382;53.242;10.438;2023-05-21T11:37:21;13.63;;;10.00;;
18505;SDS011;9382;53.242;10.438;2023-05-21T11:39:51;14.23;;;10.60;;
18505;SDS011;9382;53.242;10.438;2023-05-21T11:42:26;15.80;;;10.15;;
18505;SDS011;9382;53.242;10.438;2023-05-21T11:44:55;16.80;;;10.82;;
18505;SDS011;9382;53.242;10.438;2023-05-21T11:47:24;13.00;;;10.50;;
18505;SDS011;9382;53.242;10.438;2023-05-21T11:49:52;15.85;;;10.20;;
18505;SDS011;9382;53.242;10.438;2023-05-21T11:52:19;15.25;;;10.07;;
18505;SDS011;9382;53.242;10.438;2023-05-21T11:54:47;13.63;;;10.55;;
18505;SDS011;9382;53.242;10.438;2023-05-21T11:57:17;11.88;;;10.20;;
18505;SDS011;9382;53.242;10.438;2023-05-21T11:59:44;15.02;;;10.80;;
18505;SDS011;9382;53.242;10.438;2023-05-21T12:02:13;12.73;;;10.10;;
18505;SDS011;9382;53.242;10.438;2023-05-21T12:04:43;18.83;;;11.40;;
18505;SDS011;9382;53.242;10.438;2023-05-21T12:07:10;14.45;;;11.20;;
18505;SDS011;9382;53.242;10.438;2023-05-21T12:09:39;14.30;;;10.88;;
18505;SDS011;9382;53.242;10.438;2023-05-21T12:12:06;14.32;;;11.02;;
18505;SDS011;9382;53.242;10.438;2023-05-21T12:14:33;13.70;;;10.70;;
18505;SDS011;9382;53.242;10.438;2023-05-21T12:17:01;17.40;;;11.43;;
18505;SDS011;9382;53.242;10.438;2023-05-21T12:19:30;12.15;;;10.45;;
18505;SDS011;9382;53.242;10.438;2023-05-21T12:22:00;13.20;;;11.45;;
18505;SDS011;9382;53.242;10.438;2023-05-21T12:24:27;13.27;;;11.35;;
18505;SDS011;9382;53.242;10.438;2023-05-21T12:26:54;13.80;;;10.88;;
18505;SDS011;9382;53.242;10.438;2023-05-21T12:29:23;11.75;;;10.55;;
18505;SDS011;9382;53.242;10.438;2023-05-21T12:31:50;12.13;;;10.82;;
18505;SDS011;9382;53.242;10.438;2023-05-21T12:37:04;14.60;;;10.85;;
18505;SDS011;9382;53.242;10.438;2023-05-21T12:39:32;15.40;;;11.10;;
18505;SDS011;9382;53.242;10.438;2023-05-21T12:41:58;12.65;;;11.23;;
18505;SDS011;9382;53.242;10.438;2023-05-21T12:44:28;13.57;;;10.57;;
18505;SDS011;9382;53.242;10.438;2023-05-21T12:46:56;10.90;;;9.77;;
18505;SDS011;9382;53.242;10.438;2023-05-21T12:49:29;11.18;;;9.93;;
18505;SDS011;9382;53.242;10.438;2023-05-21T12:51:57;11.77;;;9.43;;
18505;SDS011;9382;53.242;10.438;2023-05-21T12:54:28;12.40;;;10.20;;
18505;SDS011;9382;53.242;10.438;2023-05-21T12:56:56;11.00;;;9.90;;
18505;SDS011;9382;53.242;10.438;2023-05-21T12:59:23;10.63;;;9.50;;
18505;SDS011;9382;53.242;10.438;2023-05-21T13:01:50;11.25;;;10.00;;
18505;SDS011;9382;53.242;10.438;2023-05-21T13:04:18;10.55;;;9.55;;
18505;SDS011;9382;53.242;10.438;2023-05-21T13:06:45;10.38;;;9.32;;
18505;SDS011;9382;53.242;10.438;2023-05-21T13:09:11;11.30;;;9.60;;
18505;SDS011;9382;53.242;10.438;2023-05-21T13:11:39;10.38;;;9.27;;
18505;SDS011;9382;53.242;10.438;2023-05-21T13:14:06;12.02;;;9.52;;
18505;SDS011;9382;53.242;10.438;2023-05-21T13:16:32;14.13;;;9.40;;
18505;SDS011;9382;53.242;10.438;2023-05-21T13:18:59;13.85;;;9.55;;
18505;SDS011;9382;53.242;10.438;2023-05-21T13:21:26;15.02;;;9.30;;
18505;SDS011;9382;53.242;10.438;2023-05-21T13:23:53;11.70;;;9.57;;
18505;SDS011;9382;53.242;10.438;2023-05-21T13:26:19;10.52;;;9.38;;
18505;SDS011;9382;53.242;10.438;2023-05-21T13:28:47;10.30;;;9.20;;
18505;SDS011;9382;53.242;10.438;2023-05-21T13:31:14;11.88;;;9.80;;
18505;SDS011;9382;53.242;10.438;2023-05-21T13:33:40;12.10;;;9.50;;
18505;SDS011;9382;53.242;10.438;2023-05-21T13:36:07;11.70;;;9.05;;
18505;SDS011;9382;53.242;10.438;2023-05-21T13:38:34;10.15;;;8.43;;
18505;SDS011;9382;53.242;10.438;2023-05-21T13:41:00;9.75;;;8.55;;
18505;SDS011;9382;53.242;10.438;2023-05-21T13:43:27;10.23;;;8.38;;
18505;SDS011;9382;53.242;10.438;2023-05-21T13:45:55;9.05;;;8.25;;
18505;SDS011;9382;53.242;10.438;2023-05-21T13:48:22;10.55;;;8.32;;
18505;SDS011;9382;53.242;10.438;2023-05-21T13:50:48;9.20;;;8.30;;
18505;SDS011;9382;53.242;10.438;2023-05-21T13:53:15;9.25;;;8.35;;
18505;SDS011;9382;53.242;10.438;2023-05-21T13:55:42;9.20;;;8.30;;
18505;SDS011;9382;53.242;10.438;2023-05-21T13:58:08;9.75;;;8.13;;
18505;SDS011;9382;53.242;10.438;2023-05-21T14:00:35;11.25;;;8.38;;
18505;SDS011;9382;53.242;10.438;2023-05-21T14:03:03;10.57;;;8.10;;
18505;SDS011;9382;53.242;10.438;2023-05-21T14:05:31;8.63;;;7.70;;
18505;SDS011;9382;53.242;10.438;2023-05-21T14:07:58;8.98;;;8.13;;
18505;SDS011;9382;53.242;10.438;2023-05-21T14:10:24;8.48;;;7.57;;
18505;SDS011;9382;53.242;10.438;2023-05-21T14:12:51;9.18;;;8.20;;
18505;SDS011;9382;53.242;10.438;2023-05-21T14:15:18;9.88;;;7.72;;
18505;SDS011;9382;53.242;10.438;2023-05-21T14:17:45;12.30;;;8.18;;
18505;SDS011;9382;53.242;10.438;2023-05-21T14:20:13;9.48;;;8.15;;
18505;SDS011;9382;53.242;10.438;2023-05-21T14:22:39;11.75;;;7.97;;
18505;SDS011;9382;53.242;10.438;2023-05-21T14:25:06;9.65;;;7.40;;
18505;SDS011;9382;53.242;10.438;2023-05-21T14:27:33;8.35;;;7.50;;
18505;SDS011;9382;53.242;10.438;2023-05-21T14:30:01;9.43;;;7.90;;
18505;SDS011;9382;53.242;10.438;2023-05-21T14:32:28;8.55;;;7.78;;
18505;SDS011;9382;53.242;10.438;2023-05-21T14:34:55;8.60;;;7.70;;
18505;SDS011;9382;53.242;10.438;2023-05-21T14:37:24;10.70;;;8.50;;
18505;SDS011;9382;53.242;10.438;2023-05-21T14:39:51;8.57;;;7.38;;
18505;SDS011;9382;53.242;10.438;2023-05-21T14:42:17;11.75;;;7.88;;
18505;SDS011;9382;53.242;10.438;2023-05-21T14:44:44;9.55;;;7.53;;
18505;SDS011;9382;53.242;10.438;2023-05-21T14:47:11;10.43;;;7.55;;